Humidity-temperature Sensor

Selected Measurement Type: Relative Humidity

 
Relative Humidity [%]     6 entries per hour
Showing data from 7/12/2023 (00:00:00 Z) to 7/11/2023 (00:01:00 Z)
Previous Next [ Day | 3-Days | 7-Days ]
First Last
Prev [ Day | 3-Days | 7-Days ] Next
First Last

Start Time:     :
End Time:     :     
Time (in GMT) :00 :50 :40 :30 :20 :10
Previous Next [ Day | 3-Days | 7-Days ]
First Last
Prev [ Day | 3-Days | 7-Days ] Next
First Last


123 => good data
MM => data is determined as missing
-- => data not received/configured
Back to Top Back to Top
7/12/2023 00:00 to 23:10 96.85 95.83 94.95 94.73 96.55 96.17
7/11/2023 23:00 to 22:10 95.83 95.75 95.71 97.21 96.89 97.05
7/11/2023 22:00 to 21:10 96.45 94.49 94.83 95.39 96.41 96.23
7/11/2023 21:00 to 20:10 97.83 97.33 96.73 94.93 97.93 96.49
7/11/2023 20:00 to 19:10 95.95 96.17 96.09 96.95 97.35 98.29
7/11/2023 19:00 to 18:10 97.45 98.95 98.81 99.93 99.93 99.93
7/11/2023 18:00 to 17:10 99.93 99.93 99.93 99.93 99.93 99.93
7/11/2023 17:00 to 16:10 99.93 99.93 99.93 99.93 99.93 99.93
7/11/2023 16:00 to 15:10 99.93 99.79 98.23 97.61 97.99 96.77
7/11/2023 15:00 to 14:10 94.97 98.49 99.87 96.93 96.17 95.45
7/11/2023 14:00 to 13:10 95.47 95.69 96.33 95.43 94.97 96.07
7/11/2023 13:00 to 12:10 95.61 94.51 94.03 95.67 95.35 96.31
7/11/2023 12:00 to 11:10 95.69 95.61 94.85 95.05 94.63 94.07
7/11/2023 11:00 to 10:10 94.81 93.95 95.81 94.79 94.67 95.13
7/11/2023 10:00 to 9:10 94.75 95.09 95.47 94.51 94.21 94.19
7/11/2023 09:00 to 8:10 95.87 95.39 95.17 93.89 94.81 94.61
7/11/2023 08:00 to 7:10 94.43 94.21 94.17 95.21 93.81 93.17
7/11/2023 07:00 to 6:10 92.61 93.79 91.93 92.61 92.61 92.43
7/11/2023 06:00 to 5:10 92.09 92.53 91.51 92.45 92.71 92.69
7/11/2023 05:00 to 4:10 92.17 91.65 91.77 92.53 92.27 94.11
7/11/2023 04:00 to 3:10 93.65 91.91 92.55 92.13 92.91 91.83
7/11/2023 03:00 to 2:10 93.53 91.21 93.01 91.95 93.19 91.95
7/11/2023 02:00 to 1:10 91.45 91.17 92.25 92.35 90.71 91.57
7/11/2023 01:00 to 0:10 89.41 89.11 89.07 89.65 88.71 88.83